sensor_id;sensor_type;location;lat;lon;timestamp;temperature;humidity
21176;DHT22;10746;50.178;8.186;2023-04-01T00:01:04;8.40;99.90
21176;DHT22;10746;50.178;8.186;2023-04-01T00:03:31;8.40;99.90
21176;DHT22;10746;50.178;8.186;2023-04-01T00:05:59;8.40;99.90
21176;DHT22;10746;50.178;8.186;2023-04-01T00:08:27;8.50;99.90
21176;DHT22;10746;50.178;8.186;2023-04-01T00:10:55;8.50;99.90
21176;DHT22;10746;50.178;8.186;2023-04-01T00:13:24;8.40;99.90
21176;DHT22;10746;50.178;8.186;2023-04-01T00:15:52;8.50;99.90
21176;DHT22;10746;50.178;8.186;2023-04-01T00:18:18;8.50;99.90
21176;DHT22;10746;50.178;8.186;2023-04-01T00:20:45;8.50;99.90
21176;DHT22;10746;50.178;8.186;2023-04-01T00:23:13;8.50;99.90
21176;DHT22;10746;50.178;8.186;2023-04-01T00:25:40;8.50;99.90
21176;DHT22;10746;50.178;8.186;2023-04-01T00:28:06;8.40;99.90
21176;DHT22;10746;50.178;8.186;2023-04-01T00:30:35;8.40;99.90
21176;DHT22;10746;50.178;8.186;2023-04-01T00:33:02;8.40;99.90
21176;DHT22;10746;50.178;8.186;2023-04-01T00:35:29;8.40;99.90
21176;DHT22;10746;50.178;8.186;2023-04-01T00:37:56;8.40;99.90
21176;DHT22;10746;50.178;8.186;2023-04-01T00:40:26;8.40;99.90
21176;DHT22;10746;50.178;8.186;2023-04-01T00:42:53;8.40;99.90
21176;DHT22;10746;50.178;8.186;2023-04-01T00:45:32;8.30;99.90
21176;DHT22;10746;50.178;8.186;2023-04-01T00:48:03;8.30;99.90
21176;DHT22;10746;50.178;8.186;2023-04-01T00:50:32;8.30;99.90
21176;DHT22;10746;50.178;8.186;2023-04-01T00:53:01;8.20;99.90
21176;DHT22;10746;50.178;8.186;2023-04-01T00:55:30;8.20;99.90
21176;DHT22;10746;50.178;8.186;2023-04-01T00:57:59;8.30;99.90
21176;DHT22;10746;50.178;8.186;2023-04-01T01:00:26;8.20;99.90
21176;DHT22;10746;50.178;8.186;2023-04-01T01:02:53;8.20;99.90
21176;DHT22;10746;50.178;8.186;2023-04-01T01:05:29;8.20;99.90
21176;DHT22;10746;50.178;8.186;2023-04-01T01:08:02;8.10;99.90
21176;DHT22;10746;50.178;8.186;2023-04-01T01:10:32;8.20;99.90
21176;DHT22;10746;50.178;8.186;2023-04-01T01:13:07;8.10;99.90
21176;DHT22;10746;50.178;8.186;2023-04-01T01:15:40;8.20;99.90
21176;DHT22;10746;50.178;8.186;2023-04-01T01:18:13;8.10;99.90
21176;DHT22;10746;50.178;8.186;2023-04-01T01:24:12;8.20;99.90
21176;DHT22;10746;50.178;8.186;2023-04-01T01:27:01;8.10;99.90
21176;DHT22;10746;50.178;8.186;2023-04-01T01:30:01;8.10;99.90
21176;DHT22;10746;50.178;8.186;2023-04-01T01:32:49;8.10;99.90
21176;DHT22;10746;50.178;8.186;2023-04-01T01:35:23;8.10;99.90
21176;DHT22;10746;50.178;8.186;2023-04-01T01:37:52;8.10;99.90
21176;DHT22;10746;50.178;8.186;2023-04-01T01:40:20;8.10;99.90
21176;DHT22;10746;50.178;8.186;2023-04-01T01:42:50;8.10;99.90
21176;DHT22;10746;50.178;8.186;2023-04-01T01:45:20;8.00;99.90
21176;DHT22;10746;50.178;8.186;2023-04-01T01:47:49;8.00;99.90
21176;DHT22;10746;50.178;8.186;2023-04-01T01:50:17;8.00;99.90
21176;DHT22;10746;50.178;8.186;2023-04-01T01:52:45;8.10;99.90
21176;DHT22;10746;50.178;8.186;2023-04-01T01:55:27;8.10;99.90
21176;DHT22;10746;50.178;8.186;2023-04-01T01:57:56;8.10;99.90
21176;DHT22;10746;50.178;8.186;2023-04-01T02:00:24;8.10;99.90
21176;DHT22;10746;50.178;8.186;2023-04-01T02:02:53;8.10;99.90
21176;DHT22;10746;50.178;8.186;2023-04-01T02:05:22;8.10;99.90
21176;DHT22;10746;50.178;8.186;2023-04-01T02:07:57;8.10;99.90
21176;DHT22;10746;50.178;8.186;2023-04-01T02:10:28;8.00;99.90
21176;DHT22;10746;50.178;8.186;2023-04-01T02:13:00;8.10;99.90
21176;DHT22;10746;50.178;8.186;2023-04-01T02:15:31;8.10;99.90
21176;DHT22;10746;50.178;8.186;2023-04-01T02:18:00;8.10;99.90
21176;DHT22;10746;50.178;8.186;2023-04-01T02:20:28;8.20;99.90
21176;DHT22;10746;50.178;8.186;2023-04-01T02:22:58;8.20;99.90
21176;DHT22;10746;50.178;8.186;2023-04-01T02:25:27;8.10;99.90
21176;DHT22;10746;50.178;8.186;2023-04-01T02:27:56;8.20;99.90
21176;DHT22;10746;50.178;8.186;2023-04-01T02:30:25;8.30;99.90
21176;DHT22;10746;50.178;8.186;2023-04-01T02:32:53;8.10;99.90
21176;DHT22;10746;50.178;8.186;2023-04-01T02:35:21;8.20;99.90
21176;DHT22;10746;50.178;8.186;2023-04-01T02:37:49;8.10;99.90
21176;DHT22;10746;50.178;8.186;2023-04-01T02:40:18;8.00;99.90
21176;DHT22;10746;50.178;8.186;2023-04-01T02:42:45;8.10;99.90
21176;DHT22;10746;50.178;8.186;2023-04-01T02:45:13;8.20;99.90
21176;DHT22;10746;50.178;8.186;2023-04-01T02:47:40;8.20;99.90
21176;DHT22;10746;50.178;8.186;2023-04-01T02:50:07;8.00;99.90
21176;DHT22;10746;50.178;8.186;2023-04-01T02:52:35;8.30;99.90
21176;DHT22;10746;50.178;8.186;2023-04-01T02:55:03;8.10;99.90
21176;DHT22;10746;50.178;8.186;2023-04-01T02:57:31;8.10;99.90
21176;DHT22;10746;50.178;8.186;2023-04-01T02:59:58;8.10;99.90
21176;DHT22;10746;50.178;8.186;2023-04-01T03:02:25;8.10;99.90
21176;DHT22;10746;50.178;8.186;2023-04-01T03:04:52;8.10;99.90
21176;DHT22;10746;50.178;8.186;2023-04-01T03:07:19;8.00;99.90
21176;DHT22;10746;50.178;8.186;2023-04-01T03:09:45;8.00;99.90
21176;DHT22;10746;50.178;8.186;2023-04-01T03:12:12;8.00;99.90
21176;DHT22;10746;50.178;8.186;2023-04-01T03:14:40;8.00;99.90
21176;DHT22;10746;50.178;8.186;2023-04-01T03:17:07;7.90;99.90
21176;DHT22;10746;50.178;8.186;2023-04-01T03:19:34;8.00;99.90
21176;DHT22;10746;50.178;8.186;2023-04-01T03:22:00;7.90;99.90
21176;DHT22;10746;50.178;8.186;2023-04-01T03:24:27;7.90;99.90
21176;DHT22;10746;50.178;8.186;2023-04-01T03:26:54;7.80;99.90
21176;DHT22;10746;50.178;8.186;2023-04-01T03:29:21;7.90;99.90
21176;DHT22;10746;50.178;8.186;2023-04-01T03:31:49;7.80;99.90
21176;DHT22;10746;50.178;8.186;2023-04-01T03:34:15;7.80;99.90
21176;DHT22;10746;50.178;8.186;2023-04-01T03:36:42;7.90;99.90
21176;DHT22;10746;50.178;8.186;2023-04-01T03:39:09;7.80;99.90
21176;DHT22;10746;50.178;8.186;2023-04-01T03:41:36;7.80;99.90
21176;DHT22;10746;50.178;8.186;2023-04-01T03:44:03;7.80;99.90
21176;DHT22;10746;50.178;8.186;2023-04-01T03:46:30;7.80;99.90
21176;DHT22;10746;50.178;8.186;2023-04-01T03:48:58;7.80;99.90
21176;DHT22;10746;50.178;8.186;2023-04-01T03:51:25;7.80;99.90
21176;DHT22;10746;50.178;8.186;2023-04-01T03:53:52;7.80;99.90
21176;DHT22;10746;50.178;8.186;2023-04-01T03:56:18;7.80;99.90
21176;DHT22;10746;50.178;8.186;2023-04-01T03:58:45;7.80;99.90
21176;DHT22;10746;50.178;8.186;2023-04-01T04:01:17;7.70;99.90
21176;DHT22;10746;50.178;8.186;2023-04-01T04:03:44;7.70;99.90
21176;DHT22;10746;50.178;8.186;2023-04-01T04:06:13;7.70;99.90
21176;DHT22;10746;50.178;8.186;2023-04-01T04:08:40;7.80;99.90
21176;DHT22;10746;50.178;8.186;2023-04-01T04:11:07;7.70;99.90
21176;DHT22;10746;50.178;8.186;2023-04-01T04:13:34;7.70;99.90
21176;DHT22;10746;50.178;8.186;2023-04-01T04:16:01;7.70;99.90
21176;DHT22;10746;50.178;8.186;2023-04-01T04:18:28;7.70;99.90
21176;DHT22;10746;50.178;8.186;2023-04-01T04:20:55;7.60;99.90
21176;DHT22;10746;50.178;8.186;2023-04-01T04:23:23;7.70;99.90
21176;DHT22;10746;50.178;8.186;2023-04-01T04:25:54;7.70;99.90
21176;DHT22;10746;50.178;8.186;2023-04-01T04:28:21;7.70;99.90
21176;DHT22;10746;50.178;8.186;2023-04-01T04:30:49;7.70;99.90
21176;DHT22;10746;50.178;8.186;2023-04-01T04:33:16;7.70;99.90
21176;DHT22;10746;50.178;8.186;2023-04-01T04:35:43;7.70;99.90
21176;DHT22;10746;50.178;8.186;2023-04-01T04:38:09;7.80;99.90
21176;DHT22;10746;50.178;8.186;2023-04-01T04:40:38;7.70;99.90
21176;DHT22;10746;50.178;8.186;2023-04-01T04:43:04;7.70;99.90
21176;DHT22;10746;50.178;8.186;2023-04-01T04:45:32;7.70;99.90
21176;DHT22;10746;50.178;8.186;2023-04-01T04:47:59;7.70;99.90
21176;DHT22;10746;50.178;8.186;2023-04-01T04:50:26;7.70;99.90
21176;DHT22;10746;50.178;8.186;2023-04-01T04:52:52;7.70;99.90
21176;DHT22;10746;50.178;8.186;2023-04-01T04:55:19;7.70;99.90
21176;DHT22;10746;50.178;8.186;2023-04-01T04:57:48;7.70;99.90
21176;DHT22;10746;50.178;8.186;2023-04-01T05:00:15;7.70;99.90
21176;DHT22;10746;50.178;8.186;2023-04-01T05:02:42;7.60;99.90
21176;DHT22;10746;50.178;8.186;2023-04-01T05:05:09;7.50;99.90
21176;DHT22;10746;50.178;8.186;2023-04-01T05:07:36;7.50;99.90
21176;DHT22;10746;50.178;8.186;2023-04-01T05:10:04;7.50;99.90
21176;DHT22;10746;50.178;8.186;2023-04-01T05:12:31;7.50;99.90
21176;DHT22;10746;50.178;8.186;2023-04-01T05:15:03;7.50;99.90
21176;DHT22;10746;50.178;8.186;2023-04-01T05:17:30;7.50;99.90
21176;DHT22;10746;50.178;8.186;2023-04-01T05:19:57;7.50;99.90
21176;DHT22;10746;50.178;8.186;2023-04-01T05:22:23;7.50;99.90
21176;DHT22;10746;50.178;8.186;2023-04-01T05:24:50;7.50;99.90
21176;DHT22;10746;50.178;8.186;2023-04-01T05:27:17;7.60;99.90
21176;DHT22;10746;50.178;8.186;2023-04-01T05:29:44;7.60;99.90
21176;DHT22;10746;50.178;8.186;2023-04-01T05:32:12;7.50;99.90
21176;DHT22;10746;50.178;8.186;2023-04-01T05:34:39;7.60;99.90
21176;DHT22;10746;50.178;8.186;2023-04-01T05:37:06;7.60;99.90
21176;DHT22;10746;50.178;8.186;2023-04-01T05:39:36;7.60;99.90
21176;DHT22;10746;50.178;8.186;2023-04-01T05:42:05;7.60;99.90
21176;DHT22;10746;50.178;8.186;2023-04-01T05:44:32;7.70;99.90
21176;DHT22;10746;50.178;8.186;2023-04-01T05:46:59;7.70;99.90
21176;DHT22;10746;50.178;8.186;2023-04-01T05:49:27;7.70;99.90
21176;DHT22;10746;50.178;8.186;2023-04-01T05:51:54;7.70;99.90
21176;DHT22;10746;50.178;8.186;2023-04-01T05:54:20;7.70;99.90
21176;DHT22;10746;50.178;8.186;2023-04-01T05:56:47;7.70;99.90
21176;DHT22;10746;50.178;8.186;2023-04-01T05:59:14;7.70;99.90
21176;DHT22;10746;50.178;8.186;2023-04-01T06:01:41;7.70;99.90
21176;DHT22;10746;50.178;8.186;2023-04-01T06:04:12;7.70;99.90
21176;DHT22;10746;50.178;8.186;2023-04-01T06:06:41;7.60;99.90
21176;DHT22;10746;50.178;8.186;2023-04-01T06:09:13;7.60;99.90
21176;DHT22;10746;50.178;8.186;2023-04-01T06:11:55;7.70;99.90
21176;DHT22;10746;50.178;8.186;2023-04-01T06:14:33;7.60;99.90
21176;DHT22;10746;50.178;8.186;2023-04-01T06:17:19;7.70;99.90
21176;DHT22;10746;50.178;8.186;2023-04-01T06:19:53;7.70;99.90
21176;DHT22;10746;50.178;8.186;2023-04-01T06:22:47;7.60;99.90
21176;DHT22;10746;50.178;8.186;2023-04-01T06:25:35;7.60;99.90
21176;DHT22;10746;50.178;8.186;2023-04-01T06:31:02;7.40;99.90
21176;DHT22;10746;50.178;8.186;2023-04-01T06:33:43;7.40;99.90
21176;DHT22;10746;50.178;8.186;2023-04-01T06:36:28;7.40;99.90
21176;DHT22;10746;50.178;8.186;2023-04-01T06:39:12;7.40;99.90
21176;DHT22;10746;50.178;8.186;2023-04-01T06:44:41;7.30;99.90
21176;DHT22;10746;50.178;8.186;2023-04-01T06:47:22;7.40;99.90
21176;DHT22;10746;50.178;8.186;2023-04-01T06:49:56;7.30;99.90
21176;DHT22;10746;50.178;8.186;2023-04-01T06:52:34;7.40;99.90
21176;DHT22;10746;50.178;8.186;2023-04-01T06:55:21;7.40;99.90
21176;DHT22;10746;50.178;8.186;2023-04-01T06:57:52;7.40;99.90
21176;DHT22;10746;50.178;8.186;2023-04-01T07:00:27;7.50;99.90
21176;DHT22;10746;50.178;8.186;2023-04-01T07:03:02;7.50;99.90
21176;DHT22;10746;50.178;8.186;2023-04-01T07:05:32;7.60;99.90
21176;DHT22;10746;50.178;8.186;2023-04-01T07:08:01;7.60;99.90
21176;DHT22;10746;50.178;8.186;2023-04-01T07:10:35;7.70;99.90
21176;DHT22;10746;50.178;8.186;2023-04-01T07:13:10;7.80;99.90
21176;DHT22;10746;50.178;8.186;2023-04-01T07:15:40;7.80;99.90
21176;DHT22;10746;50.178;8.186;2023-04-01T07:18:12;7.90;99.90
21176;DHT22;10746;50.178;8.186;2023-04-01T07:20:41;8.00;99.90
21176;DHT22;10746;50.178;8.186;2023-04-01T07:23:13;8.00;99.90
21176;DHT22;10746;50.178;8.186;2023-04-01T07:25:47;8.00;99.90
21176;DHT22;10746;50.178;8.186;2023-04-01T07:28:15;8.00;99.90
21176;DHT22;10746;50.178;8.186;2023-04-01T07:30:51;8.10;99.90
21176;DHT22;10746;50.178;8.186;2023-04-01T07:33:24;8.20;99.90
21176;DHT22;10746;50.178;8.186;2023-04-01T07:35:55;8.20;99.90
21176;DHT22;10746;50.178;8.186;2023-04-01T07:38:34;8.20;99.90
21176;DHT22;10746;50.178;8.186;2023-04-01T07:41:09;8.30;99.90
21176;DHT22;10746;50.178;8.186;2023-04-01T07:43:45;8.30;99.90
21176;DHT22;10746;50.178;8.186;2023-04-01T07:46:23;8.30;99.90
21176;DHT22;10746;50.178;8.186;2023-04-01T07:49:00;8.20;99.90
21176;DHT22;10746;50.178;8.186;2023-04-01T07:51:33;8.30;99.90
21176;DHT22;10746;50.178;8.186;2023-04-01T07:54:08;8.30;99.90
21176;DHT22;10746;50.178;8.186;2023-04-01T07:56:43;8.20;99.90
21176;DHT22;10746;50.178;8.186;2023-04-01T07:59:17;8.20;99.90
21176;DHT22;10746;50.178;8.186;2023-04-01T08:01:49;8.30;99.90
21176;DHT22;10746;50.178;8.186;2023-04-01T08:04:25;8.30;99.90
21176;DHT22;10746;50.178;8.186;2023-04-01T08:07:01;8.40;99.90
21176;DHT22;10746;50.178;8.186;2023-04-01T08:09:39;8.50;99.90
21176;DHT22;10746;50.178;8.186;2023-04-01T08:12:21;8.40;99.90
21176;DHT22;10746;50.178;8.186;2023-04-01T08:15:01;8.60;99.90
21176;DHT22;10746;50.178;8.186;2023-04-01T08:17:38;8.60;99.90
21176;DHT22;10746;50.178;8.186;2023-04-01T08:23:02;8.50;99.90
21176;DHT22;10746;50.178;8.186;2023-04-01T08:25:32;8.60;99.90
21176;DHT22;10746;50.178;8.186;2023-04-01T08:28:09;8.60;99.90
21176;DHT22;10746;50.178;8.186;2023-04-01T08:30:41;8.50;99.90
21176;DHT22;10746;50.178;8.186;2023-04-01T08:33:15;8.60;99.90
21176;DHT22;10746;50.178;8.186;2023-04-01T08:35:46;8.60;99.90
21176;DHT22;10746;50.178;8.186;2023-04-01T08:38:19;8.80;99.90
21176;DHT22;10746;50.178;8.186;2023-04-01T08:40:56;8.60;99.90
21176;DHT22;10746;50.178;8.186;2023-04-01T08:49:37;8.70;99.90
21176;DHT22;10746;50.178;8.186;2023-04-01T08:52:21;8.70;99.90
21176;DHT22;10746;50.178;8.186;2023-04-01T08:55:03;8.50;99.90
21176;DHT22;10746;50.178;8.186;2023-04-01T08:57:41;8.50;99.90
21176;DHT22;10746;50.178;8.186;2023-04-01T09:00:27;8.60;99.90
21176;DHT22;10746;50.178;8.186;2023-04-01T09:03:15;8.60;99.90
21176;DHT22;10746;50.178;8.186;2023-04-01T09:09:37;8.70;99.90
21176;DHT22;10746;50.178;8.186;2023-04-01T09:12:22;8.90;99.90
21176;DHT22;10746;50.178;8.186;2023-04-01T09:15:13;9.00;99.90
21176;DHT22;10746;50.178;8.186;2023-04-01T09:20:52;9.10;99.90
21176;DHT22;10746;50.178;8.186;2023-04-01T09:23:33;9.10;99.90
21176;DHT22;10746;50.178;8.186;2023-04-01T09:26:37;9.10;99.90
21176;DHT22;10746;50.178;8.186;2023-04-01T09:29:23;9.10;99.90
21176;DHT22;10746;50.178;8.186;2023-04-01T09:32:25;9.20;99.90
21176;DHT22;10746;50.178;8.186;2023-04-01T09:35:04;9.20;99.90
21176;DHT22;10746;50.178;8.186;2023-04-01T09:37:45;9.10;99.90
21176;DHT22;10746;50.178;8.186;2023-04-01T09:40:16;9.10;99.90
21176;DHT22;10746;50.178;8.186;2023-04-01T09:45:48;9.10;99.90
21176;DHT22;10746;50.178;8.186;2023-04-01T09:48:30;9.20;99.90
21176;DHT22;10746;50.178;8.186;2023-04-01T09:51:09;9.10;99.90
21176;DHT22;10746;50.178;8.186;2023-04-01T09:53:46;9.10;99.90
21176;DHT22;10746;50.178;8.186;2023-04-01T09:56:28;9.20;99.90
21176;DHT22;10746;50.178;8.186;2023-04-01T10:02:23;9.20;99.90
21176;DHT22;10746;50.178;8.186;2023-04-01T10:05:26;9.20;99.90
21176;DHT22;10746;50.178;8.186;2023-04-01T10:08:46;9.20;99.90
21176;DHT22;10746;50.178;8.186;2023-04-01T10:11:38;9.20;99.90
21176;DHT22;10746;50.178;8.186;2023-04-01T10:17:30;9.20;99.90
21176;DHT22;10746;50.178;8.186;2023-04-01T10:20:21;9.20;99.90
21176;DHT22;10746;50.178;8.186;2023-04-01T10:23:06;9.20;99.90
21176;DHT22;10746;50.178;8.186;2023-04-01T10:25:57;9.20;99.90
21176;DHT22;10746;50.178;8.186;2023-04-01T10:28:47;9.20;99.90
21176;DHT22;10746;50.178;8.186;2023-04-01T10:31:43;9.10;99.90
21176;DHT22;10746;50.178;8.186;2023-04-01T10:34:40;9.20;99.90
21176;DHT22;10746;50.178;8.186;2023-04-01T10:37:23;9.20;99.90
21176;DHT22;10746;50.178;8.186;2023-04-01T10:40:36;9.30;99.90
21176;DHT22;10746;50.178;8.186;2023-04-01T10:43:23;9.40;99.90
21176;DHT22;10746;50.178;8.186;2023-04-01T10:52:35;9.50;99.90
21176;DHT22;10746;50.178;8.186;2023-04-01T10:55:34;9.50;99.90
21176;DHT22;10746;50.178;8.186;2023-04-01T11:01:38;9.50;99.90
21176;DHT22;10746;50.178;8.186;2023-04-01T11:13:47;9.60;99.90
21176;DHT22;10746;50.178;8.186;2023-04-01T11:16:53;9.60;99.90
21176;DHT22;10746;50.178;8.186;2023-04-01T11:23:00;9.80;99.90
21176;DHT22;10746;50.178;8.186;2023-04-01T11:28:51;9.80;99.90
21176;DHT22;10746;50.178;8.186;2023-04-01T11:31:45;9.80;99.90
21176;DHT22;10746;50.178;8.186;2023-04-01T11:34:28;9.80;99.90
21176;DHT22;10746;50.178;8.186;2023-04-01T11:37:07;9.80;99.90
21176;DHT22;10746;50.178;8.186;2023-04-01T11:39:46;9.90;99.90
21176;DHT22;10746;50.178;8.186;2023-04-01T11:42:22;10.00;99.90
21176;DHT22;10746;50.178;8.186;2023-04-01T11:44:58;10.20;99.90
21176;DHT22;10746;50.178;8.186;2023-04-01T11:47:44;10.30;99.90
21176;DHT22;10746;50.178;8.186;2023-04-01T11:50:30;10.10;99.90
21176;DHT22;10746;50.178;8.186;2023-04-01T11:53:18;10.10;99.90
21176;DHT22;10746;50.178;8.186;2023-04-01T11:56:02;10.10;99.90
21176;DHT22;10746;50.178;8.186;2023-04-01T11:59:04;10.10;99.90
21176;DHT22;10746;50.178;8.186;2023-04-01T12:01:43;10.00;99.90
21176;DHT22;10746;50.178;8.186;2023-04-01T12:04:52;9.80;99.90
21176;DHT22;10746;50.178;8.186;2023-04-01T12:07:32;9.90;99.90
21176;DHT22;10746;50.178;8.186;2023-04-01T12:10:12;9.90;99.90
21176;DHT22;10746;50.178;8.186;2023-04-01T12:12:48;9.90;99.90
21176;DHT22;10746;50.178;8.186;2023-04-01T12:15:23;9.90;99.90
21176;DHT22;10746;50.178;8.186;2023-04-01T12:17:56;9.80;99.90
21176;DHT22;10746;50.178;8.186;2023-04-01T12:20:36;9.80;99.90
21176;DHT22;10746;50.178;8.186;2023-04-01T12:23:20;9.80;99.90
21176;DHT22;10746;50.178;8.186;2023-04-01T12:26:04;9.90;99.90
21176;DHT22;10746;50.178;8.186;2023-04-01T12:28:44;9.90;99.90
21176;DHT22;10746;50.178;8.186;2023-04-01T12:31:23;10.00;99.90
21176;DHT22;10746;50.178;8.186;2023-04-01T12:37:02;10.30;99.90
21176;DHT22;10746;50.178;8.186;2023-04-01T12:39:44;10.40;99.90
21176;DHT22;10746;50.178;8.186;2023-04-01T12:42:23;10.50;99.90
21176;DHT22;10746;50.178;8.186;2023-04-01T12:45:05;10.60;99.90
21176;DHT22;10746;50.178;8.186;2023-04-01T12:47:58;10.70;99.90
21176;DHT22;10746;50.178;8.186;2023-04-01T12:53:37;10.70;99.90
21176;DHT22;10746;50.178;8.186;2023-04-01T12:56:11;10.70;99.90
21176;DHT22;10746;50.178;8.186;2023-04-01T12:58:55;10.90;99.90
21176;DHT22;10746;50.178;8.186;2023-04-01T13:01:36;11.40;99.90
21176;DHT22;10746;50.178;8.186;2023-04-01T13:04:35;12.00;99.90
21176;DHT22;10746;50.178;8.186;2023-04-01T13:07:22;11.80;99.90
21176;DHT22;10746;50.178;8.186;2023-04-01T13:10:00;12.20;99.90
21176;DHT22;10746;50.178;8.186;2023-04-01T13:12:38;12.00;99.90
21176;DHT22;10746;50.178;8.186;2023-04-01T13:15:25;11.80;99.90
21176;DHT22;10746;50.178;8.186;2023-04-01T13:17:58;11.50;99.90
21176;DHT22;10746;50.178;8.186;2023-04-01T13:20:36;11.40;99.90
21176;DHT22;10746;50.178;8.186;2023-04-01T13:23:14;11.20;99.90
21176;DHT22;10746;50.178;8.186;2023-04-01T13:25:51;11.00;99.90
21176;DHT22;10746;50.178;8.186;2023-04-01T13:28:23;11.00;99.90
21176;DHT22;10746;50.178;8.186;2023-04-01T13:30:57;10.90;99.90
21176;DHT22;10746;50.178;8.186;2023-04-01T13:33:30;10.90;99.90
21176;DHT22;10746;50.178;8.186;2023-04-01T13:36:11;11.00;99.90
21176;DHT22;10746;50.178;8.186;2023-04-01T13:38:58;10.80;99.90
21176;DHT22;10746;50.178;8.186;2023-04-01T13:41:40;10.90;99.90
21176;DHT22;10746;50.178;8.186;2023-04-01T13:44:16;11.10;99.90
21176;DHT22;10746;50.178;8.186;2023-04-01T13:46:57;11.20;99.90
21176;DHT22;10746;50.178;8.186;2023-04-01T13:49:57;11.20;99.90
21176;DHT22;10746;50.178;8.186;2023-04-01T13:52:58;11.30;99.90
21176;DHT22;10746;50.178;8.186;2023-04-01T13:55:35;11.30;99.90
21176;DHT22;10746;50.178;8.186;2023-04-01T13:58:20;11.20;99.90
21176;DHT22;10746;50.178;8.186;2023-04-01T14:00:55;11.00;99.90
21176;DHT22;10746;50.178;8.186;2023-04-01T14:06:38;11.10;99.90
21176;DHT22;10746;50.178;8.186;2023-04-01T14:09:25;11.40;99.90
21176;DHT22;10746;50.178;8.186;2023-04-01T14:12:03;11.70;99.90
21176;DHT22;10746;50.178;8.186;2023-04-01T14:14:40;12.40;99.90
21176;DHT22;10746;50.178;8.186;2023-04-01T14:17:36;12.60;99.90
21176;DHT22;10746;50.178;8.186;2023-04-01T14:20:25;11.90;99.90
21176;DHT22;10746;50.178;8.186;2023-04-01T14:23:07;11.50;99.90
21176;DHT22;10746;50.178;8.186;2023-04-01T14:25:54;11.10;99.90
21176;DHT22;10746;50.178;8.186;2023-04-01T14:28:30;11.10;99.90
21176;DHT22;10746;50.178;8.186;2023-04-01T14:31:27;11.20;99.90
21176;DHT22;10746;50.178;8.186;2023-04-01T14:34:05;11.00;99.90
21176;DHT22;10746;50.178;8.186;2023-04-01T14:36:50;10.80;99.90
21176;DHT22;10746;50.178;8.186;2023-04-01T14:39:33;10.70;99.90
21176;DHT22;10746;50.178;8.186;2023-04-01T14:42:17;10.60;99.90
21176;DHT22;10746;50.178;8.186;2023-04-01T14:44:56;10.30;99.90
21176;DHT22;10746;50.178;8.186;2023-04-01T14:47:44;10.10;99.90
21176;DHT22;10746;50.178;8.186;2023-04-01T14:50:15;10.00;99.90
21176;DHT22;10746;50.178;8.186;2023-04-01T14:52:55;10.00;99.90
21176;DHT22;10746;50.178;8.186;2023-04-01T14:55:29;9.90;99.90
21176;DHT22;10746;50.178;8.186;2023-04-01T14:58:08;9.80;99.90
21176;DHT22;10746;50.178;8.186;2023-04-01T15:00:59;9.80;99.90
21176;DHT22;10746;50.178;8.186;2023-04-01T15:03:33;9.80;99.90
21176;DHT22;10746;50.178;8.186;2023-04-01T15:06:49;9.90;99.90
21176;DHT22;10746;50.178;8.186;2023-04-01T15:09:27;9.90;99.90
21176;DHT22;10746;50.178;8.186;2023-04-01T15:12:07;10.00;99.90
21176;DHT22;10746;50.178;8.186;2023-04-01T15:14:51;10.20;99.90
21176;DHT22;10746;50.178;8.186;2023-04-01T15:17:47;10.10;99.90
21176;DHT22;10746;50.178;8.186;2023-04-01T15:20:45;10.60;99.90
21176;DHT22;10746;50.178;8.186;2023-04-01T15:23:22;11.00;99.90
21176;DHT22;10746;50.178;8.186;2023-04-01T15:26:22;11.10;99.90
21176;DHT22;10746;50.178;8.186;2023-04-01T15:28:59;10.80;99.90
21176;DHT22;10746;50.178;8.186;2023-04-01T15:31:31;10.80;99.90
21176;DHT22;10746;50.178;8.186;2023-04-01T15:34:15;10.70;99.90
21176;DHT22;10746;50.178;8.186;2023-04-01T15:36:50;10.60;99.90
21176;DHT22;10746;50.178;8.186;2023-04-01T15:39:22;10.40;99.90
21176;DHT22;10746;50.178;8.186;2023-04-01T15:42:16;10.50;99.90
21176;DHT22;10746;50.178;8.186;2023-04-01T15:44:53;10.20;99.90
21176;DHT22;10746;50.178;8.186;2023-04-01T15:47:32;10.20;99.90
21176;DHT22;10746;50.178;8.186;2023-04-01T15:50:27;10.20;99.90
21176;DHT22;10746;50.178;8.186;2023-04-01T15:53:07;10.10;99.90
21176;DHT22;10746;50.178;8.186;2023-04-01T15:55:39;9.90;99.90
21176;DHT22;10746;50.178;8.186;2023-04-01T15:58:26;10.40;99.90
21176;DHT22;10746;50.178;8.186;2023-04-01T16:01:01;11.30;99.90
21176;DHT22;10746;50.178;8.186;2023-04-01T16:03:35;12.40;99.90
21176;DHT22;10746;50.178;8.186;2023-04-01T16:06:35;12.60;99.90
21176;DHT22;10746;50.178;8.186;2023-04-01T16:09:20;13.00;99.90
21176;DHT22;10746;50.178;8.186;2023-04-01T16:11:55;12.70;99.90
21176;DHT22;10746;50.178;8.186;2023-04-01T16:14:34;12.60;99.90
21176;DHT22;10746;50.178;8.186;2023-04-01T16:17:23;12.60;99.90
21176;DHT22;10746;50.178;8.186;2023-04-01T16:19:56;12.60;99.90
21176;DHT22;10746;50.178;8.186;2023-04-01T16:22:30;12.80;99.90
21176;DHT22;10746;50.178;8.186;2023-04-01T16:25:14;12.70;99.90
21176;DHT22;10746;50.178;8.186;2023-04-01T16:27:47;12.10;99.90
21176;DHT22;10746;50.178;8.186;2023-04-01T16:30:32;11.10;99.90
21176;DHT22;10746;50.178;8.186;2023-04-01T16:33:02;10.70;99.90
21176;DHT22;10746;50.178;8.186;2023-04-01T16:35:36;10.40;99.90
21176;DHT22;10746;50.178;8.186;2023-04-01T16:38:12;10.20;99.90
21176;DHT22;10746;50.178;8.186;2023-04-01T16:40:47;10.20;99.90
21176;DHT22;10746;50.178;8.186;2023-04-01T16:43:24;10.00;99.90
21176;DHT22;10746;50.178;8.186;2023-04-01T16:48:58;9.80;99.90
21176;DHT22;10746;50.178;8.186;2023-04-01T16:51:30;9.70;99.90
21176;DHT22;10746;50.178;8.186;2023-04-01T16:54:04;9.60;99.90
21176;DHT22;10746;50.178;8.186;2023-04-01T16:56:40;9.70;99.90
21176;DHT22;10746;50.178;8.186;2023-04-01T16:59:17;9.70;99.90
21176;DHT22;10746;50.178;8.186;2023-04-01T17:01:51;9.80;99.90
21176;DHT22;10746;50.178;8.186;2023-04-01T17:04:25;9.80;99.90
21176;DHT22;10746;50.178;8.186;2023-04-01T17:06:56;9.80;99.90
21176;DHT22;10746;50.178;8.186;2023-04-01T17:09:33;9.70;99.90
21176;DHT22;10746;50.178;8.186;2023-04-01T17:12:08;9.70;99.90
21176;DHT22;10746;50.178;8.186;2023-04-01T17:14:45;9.80;99.90
21176;DHT22;10746;50.178;8.186;2023-04-01T17:17:23;9.70;99.90
21176;DHT22;10746;50.178;8.186;2023-04-01T17:20:07;9.60;99.90
21176;DHT22;10746;50.178;8.186;2023-04-01T17:22:43;9.50;99.90
21176;DHT22;10746;50.178;8.186;2023-04-01T17:25:20;9.50;99.90
21176;DHT22;10746;50.178;8.186;2023-04-01T17:27:59;9.50;99.90
21176;DHT22;10746;50.178;8.186;2023-04-01T17:30:34;9.40;99.90
21176;DHT22;10746;50.178;8.186;2023-04-01T17:33:23;9.40;99.90
21176;DHT22;10746;50.178;8.186;2023-04-01T17:36:08;9.40;99.90
21176;DHT22;10746;50.178;8.186;2023-04-01T17:39:12;9.30;99.90
21176;DHT22;10746;50.178;8.186;2023-04-01T17:41:48;9.30;99.90
21176;DHT22;10746;50.178;8.186;2023-04-01T17:44:32;9.20;99.90
21176;DHT22;10746;50.178;8.186;2023-04-01T17:47:13;9.20;99.90
21176;DHT22;10746;50.178;8.186;2023-04-01T17:49:49;9.10;99.90
21176;DHT22;10746;50.178;8.186;2023-04-01T17:52:25;9.10;99.90